METAR Data
IDs: Format: Raw Decoded Include TAF

Data at: 0622 UTC 11 Dec 2018

KSLR 110615Z AUTO 00000KT 10SM CLR 04/00 A3039 RMK AO2 T00370000
KSLR 110555Z AUTO 00000KT 10SM CLR 03/00 A3039 RMK AO2 T00261001 10090 20026 401170002
KSLR 110535Z AUTO 00000KT 10SM CLR 04/00 A3039 RMK AO2 T00391002
KSLR 110515Z AUTO 16003KT 10SM CLR 04/00 A3039 RMK AO2 T00431002
KSLR 110455Z AUTO 15004KT 10SM CLR 04/00 A3039 RMK AO2 T00410000
KSLR 110435Z AUTO 00000KT 10SM CLR 04/00 A3040 RMK AO2 T00381003
KSLR 110415Z AUTO 16004KT 10SM CLR 04/00 A3039 RMK AO2 T00360000
KSLR 110355Z AUTO 00000KT 10SM CLR 04/00 A3040 RMK AO2 T00360000
KSLR 110335Z AUTO 00000KT 10SM CLR 04/00 A3039 RMK AO2 T00360000
KSLR 110315Z AUTO 00000KT 10SM CLR 04/00 A3040 RMK AO2 T00410000
KSLR 110255Z AUTO 15003KT 10SM CLR 04/00 A3040 RMK AO2 T00380004
KSLR 110235Z AUTO 14003KT 10SM CLR 04/01 A3040 RMK AO2 T00360006
KSLR 110215Z AUTO 15003KT 10SM CLR 06/00 A3040 RMK AO2 T00581005
KSLR 110155Z AUTO 17004KT 10SM CLR 05/00 A3039 RMK AO2 T00511001
KSLR 110135Z AUTO 18003KT 10SM CLR 07/00 A3039 RMK AO2 T00681005
KSLR 110115Z AUTO 16005KT 10SM CLR 07/00 A3038 RMK AO2 T00721004
KSLR 110055Z AUTO 17004KT 10SM CLR 06/00 A3038 RMK AO2 T00620000
KSLR 110035Z AUTO 15004KT 10SM CLR 08/M01 A3038 RMK AO2 T00791008
KSLR 110015Z AUTO 00000KT 10SM CLR 08/00 A3037 RMK AO2 T00790000
KSLR 102355Z AUTO 00000KT 10SM CLR 09/00 A3037 RMK AO2 T00901005 10117 20090
KSLR 102335Z AUTO 00000KT 10SM CLR 10/M01 A3037 RMK AO2 T00991013
KSLR 102315Z AUTO 00000KT 10SM CLR 11/M02 A3036 RMK AO2 T01071019
KSLR 102255Z AUTO 00000KT 10SM CLR 11/M02 A3036 RMK AO2 T01141020
KSLR 102235Z AUTO 00000KT 10SM CLR 12/M02 A3037 RMK AO2 T01151019
KSLR 102215Z AUTO 00000KT 10SM CLR 12/M02 A3036 RMK AO2 T01161024
KSLR 102155Z AUTO 00000KT 10SM CLR 12/M01 A3037 RMK AO2 T01171014
KSLR 102135Z AUTO 28003KT 10SM CLR 12/M02 A3037 RMK AO2 T01161025
KSLR 102115Z AUTO 00000KT 10SM CLR 12/M02 A3036 RMK AO2 T01161018
KSLR 102055Z AUTO 00000KT 10SM CLR 12/M02 A3036 RMK AO2 T01151017
KSLR 102035Z AUTO 34003KT 10SM CLR 11/M01 A3036 RMK AO2 T01141013
KSLR 102015Z AUTO 33005KT 10SM CLR 11/M02 A3037 RMK AO2 T01111016
KSLR 101955Z AUTO 34004KT 10SM CLR 11/M02 A3037 RMK AO2 T01101023
KSLR 101935Z AUTO 00000KT 10SM CLR 10/M02 A3038 RMK AO2 T01041020
KSLR 101915Z AUTO 33004KT 10SM CLR 10/M02 A3038 RMK AO2 T01021021
KSLR 101855Z AUTO 35004KT 10SM CLR 10/M03 A3039 RMK AO2 T00991026
KSLR 101835Z AUTO 00000KT 10SM CLR 10/M02 A3039 RMK AO2 T00951024
KSLR 101815Z AUTO 31003KT 10SM CLR 09/M02 A3040 RMK AO2 T00941023
KSLR 101755Z AUTO 34005KT 10SM CLR 09/M01 A3041 RMK AO2 T00941014 10094 20002
KSLR 101735Z AUTO 34005KT 10SM CLR 09/M02 A3042 RMK AO2 T00891020
KSLR 101715Z AUTO 36005KT 10SM CLR 09/M03 A3042 RMK AO2 T00861028
KSLR 101655Z AUTO 36003KT 10SM CLR 08/M02 A3042 RMK AO2 T00791022
KSLR 101635Z AUTO 35004KT 10SM CLR 07/M02 A3042 RMK AO2 T00731020
KSLR 101615Z AUTO 32004KT 10SM CLR 07/M02 A3043 RMK AO2 T00651016
KSLR 101555Z AUTO 33005KT 10SM CLR 06/M01 A3043 RMK AO2 T00601011
KSLR 101535Z AUTO 34006KT 10SM CLR 05/M01 A3042 RMK AO2 T00491015
KSLR 101515Z AUTO 33004KT 10SM CLR 04/M01 A3042 RMK AO2 T00411011
KSLR 101455Z AUTO 31004KT 10SM CLR 03/M01 A3042 RMK AO2 T00331009
KSLR 101435Z AUTO 31004KT 10SM CLR 03/M01 A3041 RMK AO2 T00261011
KSLR 101415Z AUTO 31004KT 10SM CLR 02/M01 A3040 RMK AO2 T00191012
KSLR 101355Z AUTO 31004KT 10SM CLR 02/M01 A3039 RMK AO2 T00151015
KSLR 101335Z AUTO 33003KT 10SM CLR 00/M02 A3039 RMK AO2 T00021024
KSLR 101315Z AUTO 32005KT 10SM CLR 01/M02 A3038 RMK AO2 T00101020
KSLR 101255Z AUTO 31004KT 10SM CLR 01/M02 A3038 RMK AO2 T00071021
KSLR 101235Z AUTO 31004KT 10SM CLR 01/M02 A3037 RMK AO2 T00101022
KSLR 101215Z AUTO 32004KT 10SM CLR 01/M02 A3037 RMK AO2 T00111021
KSLR 101155Z AUTO 00000KT 10SM CLR 01/M02 A3037 RMK AO2 T00061025 10040 20005
KSLR 101135Z AUTO 27004KT 10SM CLR 01/M02 A3036 RMK AO2 T00101025
KSLR 101115Z AUTO 28004KT 10SM CLR 02/M02 A3036 RMK AO2 T00171016
KSLR 101055Z AUTO 32005KT 10SM CLR 02/M01 A3035 RMK AO2 T00181015
KSLR 101035Z AUTO 32005KT 10SM CLR 02/M02 A3034 RMK AO2 T00191016
KSLR 101015Z AUTO 32005KT 10SM CLR 02/M01 A3034 RMK AO2 T00201015
KSLR 100955Z AUTO 00000KT 10SM CLR 01/M02 A3035 RMK AO2 T00141020
KSLR 100935Z AUTO 26003KT 10SM CLR 01/M02 A3036 RMK AO2 T00141016
KSLR 100915Z AUTO 32003KT 10SM CLR 02/M01 A3035 RMK AO2 T00221015
KSLR 100855Z AUTO 31004KT 10SM CLR 02/M01 A3036 RMK AO2 T00201013
KSLR 100835Z AUTO 31004KT 10SM CLR 02/M01 A3036 RMK AO2 T00201013
KSLR 100815Z AUTO 31005KT 10SM CLR 02/M01 A3036 RMK AO2 T00211013
KSLR 100755Z AUTO 30003KT 10SM CLR 02/M02 A3036 RMK AO2 T00221017
KSLR 100735Z AUTO 31003KT 10SM CLR 02/M02 A3035 RMK AO2 T00211016
KSLR 100715Z AUTO 27003KT 10SM CLR 02/M02 A3036 RMK AO2 T00201018
KSLR 100655Z AUTO 30003KT 10SM CLR 03/M01 A3036 RMK AO2 T00321013
KSLR 100635Z AUTO 33005KT 10SM CLR 04/M01 A3036 RMK AO2 T00351015
KSLR 100615Z AUTO 33004KT 10SM CLR 04/M01 A3037 RMK AO2 T00391011
KSLR 100555Z AUTO 32005KT 10SM CLR 04/M01 A3037 RMK AO2 T00401010 10073 20040 400950036
KSLR 100535Z AUTO 33006KT 10SM CLR 04/M01 A3037 RMK AO2 T00421009
KSLR 100515Z AUTO 33006KT 10SM CLR 05/M01 A3037 RMK AO2 T00451012
KSLR 100455Z AUTO 33006KT 10SM CLR 05/M01 A3037 RMK AO2 T00461011
KSLR 100435Z AUTO 34007KT 10SM CLR 05/M01 A3037 RMK AO2 T00501010
KSLR 100415Z AUTO 33007KT 10SM CLR 05/M01 A3037 RMK AO2 T00521008
KSLR 100355Z AUTO 33009KT 10SM CLR 06/M01 A3037 RMK AO2 T00551006
KSLR 100335Z AUTO 35009KT 10SM CLR 06/00 A3036 RMK AO2 T00551004
KSLR 100315Z AUTO 34008KT 10SM CLR 05/00 A3036 RMK AO2 T00531005
KSLR 100255Z AUTO 33007KT 10SM CLR 05/00 A3036 RMK AO2 T00530000
KSLR 100235Z AUTO 33006KT 10SM CLR 06/00 A3035 RMK AO2 T00560000
KSLR 100215Z AUTO 32006KT 10SM CLR 05/00 A3035 RMK AO2 T00530004
KSLR 100155Z AUTO 30005KT 10SM CLR 06/00 A3035 RMK AO2 T00570004
KSLR 100135Z AUTO 31005KT 10SM CLR 06/01 A3034 RMK AO2 T00600007
KSLR 100115Z AUTO 31004KT 10SM CLR 06/01 A3034 RMK AO2 T00600011
KSLR 100055Z AUTO 29006KT 10SM CLR 07/01 A3034 RMK AO2 T00650011
KSLR 100035Z AUTO 31005KT 10SM CLR 07/02 A3033 RMK AO2 T00650015
KSLR 100015Z AUTO 31006KT 10SM CLR 07/02 A3033 RMK AO2 T00700015
KSLR 092355Z AUTO 32004KT 10SM CLR 08/01 A3032 RMK AO2 T00750013 10095 20070
KSLR 092335Z AUTO 32005KT 10SM CLR 08/01 A3032 RMK AO2 T00780011
KSLR 092315Z AUTO 34005KT 10SM CLR 08/01 A3031 RMK AO2 T00780009
KSLR 092255Z AUTO 35007KT 10SM CLR 09/00 A3031 RMK AO2 T00850001
KSLR 092235Z AUTO 35008KT 10SM CLR 09/00 A3030 RMK AO2 T00900001
KSLR 092215Z AUTO 36009KT 10SM CLR 09/01 A3030 RMK AO2 T00920008
KSLR 092155Z AUTO 33009KT 10SM CLR 09/01 A3030 RMK AO2 T00920014
KSLR 092135Z AUTO 35009KT 10SM SCT047 10/01 A3029 RMK AO2 T00950012
KSLR 092115Z AUTO 34009KT 10SM BKN047 09/01 A3029 RMK AO2 T00910011
KSLR 092055Z AUTO 34011KT 10SM OVC047 10/01 A3029 RMK AO2 T00950009
KSLR 092035Z AUTO 01012KT 10SM OVC047 09/01 A3029 RMK AO2 T00850007
KSLR 092015Z AUTO 34011KT 10SM OVC045 09/02 A3030 RMK AO2 T00850019
KSLR 091955Z AUTO 34012KT 10SM OVC045 08/02 A3030 RMK AO2 T00810021
KSLR 091935Z AUTO 35012KT 10SM OVC043 08/03 A3030 RMK AO2 T00810025
KSLR 091915Z AUTO 34011KT 10SM OVC043 08/03 A3031 RMK AO2 T00780030
KSLR 091855Z AUTO 32009KT 10SM OVC043 08/02 A3032 RMK AO2 T00750024
KSLR 091835Z AUTO 33010KT 10SM OVC043 07/02 A3032 RMK AO2 T00740022